sensor_id;sensor_type;location;lat;lon;timestamp;P1;durP1;ratioP1;P2;durP2;ratioP2
75506;SDS011;64086;43.220;27.878;2023-07-30T00:01:30;5.78;;;3.50;;
75506;SDS011;64086;43.220;27.878;2023-07-30T00:03:55;4.82;;;3.55;;
75506;SDS011;64086;43.220;27.878;2023-07-30T00:06:21;4.07;;;3.38;;
75506;SDS011;64086;43.220;27.878;2023-07-30T00:08:46;3.85;;;3.30;;
75506;SDS011;64086;43.220;27.878;2023-07-30T00:11:11;4.97;;;3.28;;
75506;SDS011;64086;43.220;27.878;2023-07-30T00:13:37;3.35;;;3.05;;
75506;SDS011;64086;43.220;27.878;2023-07-30T00:16:02;5.70;;;3.90;;
75506;SDS011;64086;43.220;27.878;2023-07-30T00:18:28;5.20;;;3.63;;
75506;SDS011;64086;43.220;27.878;2023-07-30T00:20:53;4.22;;;3.25;;
75506;SDS011;64086;43.220;27.878;2023-07-30T00:23:19;4.13;;;3.50;;
75506;SDS011;64086;43.220;27.878;2023-07-30T00:25:44;5.35;;;3.88;;
75506;SDS011;64086;43.220;27.878;2023-07-30T00:28:10;4.78;;;3.65;;
75506;SDS011;64086;43.220;27.878;2023-07-30T00:30:35;5.18;;;3.92;;
75506;SDS011;64086;43.220;27.878;2023-07-30T00:33:01;5.15;;;3.90;;
75506;SDS011;64086;43.220;27.878;2023-07-30T00:35:26;4.70;;;3.70;;
75506;SDS011;64086;43.220;27.878;2023-07-30T00:37:52;6.75;;;4.50;;
75506;SDS011;64086;43.220;27.878;2023-07-30T00:40:17;6.15;;;4.15;;
75506;SDS011;64086;43.220;27.878;2023-07-30T00:42:43;5.90;;;4.30;;
75506;SDS011;64086;43.220;27.878;2023-07-30T00:45:09;6.05;;;4.45;;
75506;SDS011;64086;43.220;27.878;2023-07-30T00:47:34;8.30;;;4.57;;
75506;SDS011;64086;43.220;27.878;2023-07-30T00:50:00;8.30;;;5.20;;
75506;SDS011;64086;43.220;27.878;2023-07-30T00:52:26;7.80;;;4.70;;
75506;SDS011;64086;43.220;27.878;2023-07-30T00:54:53;10.52;;;5.80;;
75506;SDS011;64086;43.220;27.878;2023-07-30T00:57:19;12.57;;;5.25;;
75506;SDS011;64086;43.220;27.878;2023-07-30T00:59:46;6.78;;;4.30;;
75506;SDS011;64086;43.220;27.878;2023-07-30T01:02:11;7.50;;;4.80;;
75506;SDS011;64086;43.220;27.878;2023-07-30T01:04:37;5.53;;;4.28;;
75506;SDS011;64086;43.220;27.878;2023-07-30T01:07:04;5.13;;;4.20;;
75506;SDS011;64086;43.220;27.878;2023-07-30T01:09:31;6.85;;;4.15;;
75506;SDS011;64086;43.220;27.878;2023-07-30T01:11:56;7.38;;;4.80;;
75506;SDS011;64086;43.220;27.878;2023-07-30T01:14:22;7.50;;;4.63;;
75506;SDS011;64086;43.220;27.878;2023-07-30T01:16:48;9.43;;;5.07;;
75506;SDS011;64086;43.220;27.878;2023-07-30T01:19:14;7.57;;;4.82;;
75506;SDS011;64086;43.220;27.878;2023-07-30T01:21:39;7.40;;;4.97;;
75506;SDS011;64086;43.220;27.878;2023-07-30T01:24:05;8.75;;;5.15;;
75506;SDS011;64086;43.220;27.878;2023-07-30T01:26:43;7.03;;;5.03;;
75506;SDS011;64086;43.220;27.878;2023-07-30T01:29:45;6.72;;;5.45;;
75506;SDS011;64086;43.220;27.878;2023-07-30T01:32:08;7.95;;;5.50;;
75506;SDS011;64086;43.220;27.878;2023-07-30T01:34:36;6.85;;;5.00;;
75506;SDS011;64086;43.220;27.878;2023-07-30T01:37:04;8.05;;;5.30;;
75506;SDS011;64086;43.220;27.878;2023-07-30T01:39:30;11.85;;;5.85;;
75506;SDS011;64086;43.220;27.878;2023-07-30T01:41:56;8.48;;;5.53;;
75506;SDS011;64086;43.220;27.878;2023-07-30T01:44:21;8.98;;;5.97;;
75506;SDS011;64086;43.220;27.878;2023-07-30T01:46:47;7.72;;;5.18;;
75506;SDS011;64086;43.220;27.878;2023-07-30T01:49:12;5.07;;;4.55;;
75506;SDS011;64086;43.220;27.878;2023-07-30T01:51:38;5.05;;;4.53;;
75506;SDS011;64086;43.220;27.878;2023-07-30T01:54:03;4.93;;;4.40;;
75506;SDS011;64086;43.220;27.878;2023-07-30T01:56:29;6.22;;;4.82;;
75506;SDS011;64086;43.220;27.878;2023-07-30T01:58:54;5.80;;;4.70;;
75506;SDS011;64086;43.220;27.878;2023-07-30T02:01:19;5.47;;;4.93;;
75506;SDS011;64086;43.220;27.878;2023-07-30T02:03:45;8.07;;;5.07;;
75506;SDS011;64086;43.220;27.878;2023-07-30T02:06:10;5.82;;;5.25;;
75506;SDS011;64086;43.220;27.878;2023-07-30T02:08:37;6.10;;;5.50;;
75506;SDS011;64086;43.220;27.878;2023-07-30T02:11:02;6.70;;;5.00;;
75506;SDS011;64086;43.220;27.878;2023-07-30T02:13:28;5.57;;;5.07;;
75506;SDS011;64086;43.220;27.878;2023-07-30T02:15:53;8.40;;;5.60;;
75506;SDS011;64086;43.220;27.878;2023-07-30T02:18:18;6.22;;;5.28;;
75506;SDS011;64086;43.220;27.878;2023-07-30T02:20:44;6.88;;;5.45;;
75506;SDS011;64086;43.220;27.878;2023-07-30T02:23:10;6.15;;;5.65;;
75506;SDS011;64086;43.220;27.878;2023-07-30T02:25:35;17.15;;;6.78;;
75506;SDS011;64086;43.220;27.878;2023-07-30T02:28:01;7.50;;;5.95;;
75506;SDS011;64086;43.220;27.878;2023-07-30T02:30:27;15.57;;;7.45;;
75506;SDS011;64086;43.220;27.878;2023-07-30T02:32:53;9.18;;;6.10;;
75506;SDS011;64086;43.220;27.878;2023-07-30T02:35:19;8.45;;;5.60;;
75506;SDS011;64086;43.220;27.878;2023-07-30T02:37:44;6.45;;;5.70;;
75506;SDS011;64086;43.220;27.878;2023-07-30T02:40:10;13.00;;;6.72;;
75506;SDS011;64086;43.220;27.878;2023-07-30T02:42:35;8.77;;;6.05;;
75506;SDS011;64086;43.220;27.878;2023-07-30T02:45:01;6.80;;;5.97;;
75506;SDS011;64086;43.220;27.878;2023-07-30T02:47:26;6.78;;;6.07;;
75506;SDS011;64086;43.220;27.878;2023-07-30T02:49:52;8.75;;;6.03;;
75506;SDS011;64086;43.220;27.878;2023-07-30T02:52:18;7.70;;;5.70;;
75506;SDS011;64086;43.220;27.878;2023-07-30T02:54:43;6.75;;;5.55;;
75506;SDS011;64086;43.220;27.878;2023-07-30T02:57:09;6.50;;;5.82;;
75506;SDS011;64086;43.220;27.878;2023-07-30T02:59:35;6.75;;;6.05;;
75506;SDS011;64086;43.220;27.878;2023-07-30T03:02:02;7.05;;;6.25;;
75506;SDS011;64086;43.220;27.878;2023-07-30T03:04:30;6.72;;;5.57;;
75506;SDS011;64086;43.220;27.878;2023-07-30T03:06:55;6.93;;;6.22;;
75506;SDS011;64086;43.220;27.878;2023-07-30T03:09:21;9.00;;;7.00;;
75506;SDS011;64086;43.220;27.878;2023-07-30T03:11:47;7.45;;;6.70;;
75506;SDS011;64086;43.220;27.878;2023-07-30T03:14:14;7.10;;;6.40;;
75506;SDS011;64086;43.220;27.878;2023-07-30T03:16:39;7.30;;;6.63;;
75506;SDS011;64086;43.220;27.878;2023-07-30T03:19:04;8.52;;;6.68;;
75506;SDS011;64086;43.220;27.878;2023-07-30T03:21:30;7.07;;;6.38;;
75506;SDS011;64086;43.220;27.878;2023-07-30T03:23:55;6.63;;;5.95;;
75506;SDS011;64086;43.220;27.878;2023-07-30T03:26:21;6.72;;;6.13;;
75506;SDS011;64086;43.220;27.878;2023-07-30T03:28:46;6.70;;;5.88;;
75506;SDS011;64086;43.220;27.878;2023-07-30T03:31:12;6.18;;;5.57;;
75506;SDS011;64086;43.220;27.878;2023-07-30T03:33:37;7.40;;;5.80;;
75506;SDS011;64086;43.220;27.878;2023-07-30T03:36:04;6.38;;;5.40;;
75506;SDS011;64086;43.220;27.878;2023-07-30T03:38:30;6.10;;;5.60;;
75506;SDS011;64086;43.220;27.878;2023-07-30T03:40:55;7.53;;;5.63;;
75506;SDS011;64086;43.220;27.878;2023-07-30T03:43:20;8.68;;;5.82;;
75506;SDS011;64086;43.220;27.878;2023-07-30T03:45:46;7.07;;;5.40;;
75506;SDS011;64086;43.220;27.878;2023-07-30T03:48:13;6.65;;;5.18;;
75506;SDS011;64086;43.220;27.878;2023-07-30T03:50:39;6.20;;;5.63;;
75506;SDS011;64086;43.220;27.878;2023-07-30T03:53:04;6.20;;;5.60;;
75506;SDS011;64086;43.220;27.878;2023-07-30T03:55:30;6.85;;;6.10;;
75506;SDS011;64086;43.220;27.878;2023-07-30T03:57:55;6.30;;;5.70;;
75506;SDS011;64086;43.220;27.878;2023-07-30T04:00:21;6.03;;;5.47;;
75506;SDS011;64086;43.220;27.878;2023-07-30T04:02:46;8.07;;;6.07;;
75506;SDS011;64086;43.220;27.878;2023-07-30T04:05:11;7.30;;;6.40;;
75506;SDS011;64086;43.220;27.878;2023-07-30T04:07:38;7.10;;;6.00;;
75506;SDS011;64086;43.220;27.878;2023-07-30T04:10:04;7.95;;;6.13;;
75506;SDS011;64086;43.220;27.878;2023-07-30T04:12:30;6.93;;;6.28;;
75506;SDS011;64086;43.220;27.878;2023-07-30T04:14:55;7.18;;;6.28;;
75506;SDS011;64086;43.220;27.878;2023-07-30T04:17:21;6.45;;;5.85;;
75506;SDS011;64086;43.220;27.878;2023-07-30T04:19:46;6.95;;;5.88;;
75506;SDS011;64086;43.220;27.878;2023-07-30T04:22:12;7.50;;;5.40;;
75506;SDS011;64086;43.220;27.878;2023-07-30T04:24:38;5.78;;;5.25;;
75506;SDS011;64086;43.220;27.878;2023-07-30T04:27:03;5.35;;;4.90;;
75506;SDS011;64086;43.220;27.878;2023-07-30T04:29:29;6.70;;;4.50;;
75506;SDS011;64086;43.220;27.878;2023-07-30T04:31:54;5.00;;;4.50;;
75506;SDS011;64086;43.220;27.878;2023-07-30T04:34:20;5.40;;;4.55;;
75506;SDS011;64086;43.220;27.878;2023-07-30T04:36:45;6.22;;;5.53;;
75506;SDS011;64086;43.220;27.878;2023-07-30T04:39:11;6.57;;;5.10;;
75506;SDS011;64086;43.220;27.878;2023-07-30T04:41:37;5.10;;;4.70;;
75506;SDS011;64086;43.220;27.878;2023-07-30T04:44:03;5.35;;;4.85;;
75506;SDS011;64086;43.220;27.878;2023-07-30T04:46:28;6.78;;;4.97;;
75506;SDS011;64086;43.220;27.878;2023-07-30T04:48:55;5.72;;;5.10;;
75506;SDS011;64086;43.220;27.878;2023-07-30T04:51:20;7.88;;;5.43;;
75506;SDS011;64086;43.220;27.878;2023-07-30T04:53:45;7.40;;;5.03;;
75506;SDS011;64086;43.220;27.878;2023-07-30T04:56:11;5.20;;;4.75;;
75506;SDS011;64086;43.220;27.878;2023-07-30T04:58:36;8.32;;;5.07;;
75506;SDS011;64086;43.220;27.878;2023-07-30T05:01:02;6.25;;;5.50;;
75506;SDS011;64086;43.220;27.878;2023-07-30T05:03:27;7.57;;;5.68;;
75506;SDS011;64086;43.220;27.878;2023-07-30T05:05:53;5.75;;;5.25;;
75506;SDS011;64086;43.220;27.878;2023-07-30T05:08:19;6.13;;;5.53;;
75506;SDS011;64086;43.220;27.878;2023-07-30T05:10:44;5.90;;;5.40;;
75506;SDS011;64086;43.220;27.878;2023-07-30T05:13:10;6.28;;;5.68;;
75506;SDS011;64086;43.220;27.878;2023-07-30T05:15:37;7.05;;;5.38;;
75506;SDS011;64086;43.220;27.878;2023-07-30T05:18:03;6.55;;;5.95;;
75506;SDS011;64086;43.220;27.878;2023-07-30T05:20:28;6.07;;;5.57;;
75506;SDS011;64086;43.220;27.878;2023-07-30T05:22:54;5.68;;;5.18;;
75506;SDS011;64086;43.220;27.878;2023-07-30T05:25:19;6.15;;;5.65;;
75506;SDS011;64086;43.220;27.878;2023-07-30T05:27:45;6.97;;;5.35;;
75506;SDS011;64086;43.220;27.878;2023-07-30T05:30:10;8.20;;;5.93;;
75506;SDS011;64086;43.220;27.878;2023-07-30T05:32:36;6.88;;;5.70;;
75506;SDS011;64086;43.220;27.878;2023-07-30T05:35:01;10.23;;;6.18;;
75506;SDS011;64086;43.220;27.878;2023-07-30T05:37:27;6.13;;;5.47;;
75506;SDS011;64086;43.220;27.878;2023-07-30T05:39:52;4.93;;;4.47;;
75506;SDS011;64086;43.220;27.878;2023-07-30T05:42:17;10.35;;;5.75;;
75506;SDS011;64086;43.220;27.878;2023-07-30T05:44:43;9.98;;;6.20;;
75506;SDS011;64086;43.220;27.878;2023-07-30T05:47:08;5.78;;;5.00;;
75506;SDS011;64086;43.220;27.878;2023-07-30T05:49:34;6.03;;;5.43;;
75506;SDS011;64086;43.220;27.878;2023-07-30T05:51:59;6.57;;;5.97;;
75506;SDS011;64086;43.220;27.878;2023-07-30T05:54:25;6.15;;;5.40;;
75506;SDS011;64086;43.220;27.878;2023-07-30T05:56:50;5.85;;;5.40;;
75506;SDS011;64086;43.220;27.878;2023-07-30T05:59:15;8.25;;;5.68;;
75506;SDS011;64086;43.220;27.878;2023-07-30T06:01:41;6.38;;;5.18;;
75506;SDS011;64086;43.220;27.878;2023-07-30T06:04:06;5.15;;;4.75;;
75506;SDS011;64086;43.220;27.878;2023-07-30T06:06:32;5.30;;;4.90;;
75506;SDS011;64086;43.220;27.878;2023-07-30T06:08:57;5.40;;;5.00;;
75506;SDS011;64086;43.220;27.878;2023-07-30T06:11:23;6.55;;;5.30;;
75506;SDS011;64086;43.220;27.878;2023-07-30T06:13:48;5.38;;;4.97;;
75506;SDS011;64086;43.220;27.878;2023-07-30T06:16:14;7.65;;;5.55;;
75506;SDS011;64086;43.220;27.878;2023-07-30T06:18:40;5.97;;;5.47;;
75506;SDS011;64086;43.220;27.878;2023-07-30T06:21:05;5.40;;;5.00;;
75506;SDS011;64086;43.220;27.878;2023-07-30T06:23:30;6.38;;;5.82;;
75506;SDS011;64086;43.220;27.878;2023-07-30T06:25:56;6.35;;;4.93;;
75506;SDS011;64086;43.220;27.878;2023-07-30T06:28:21;5.72;;;5.15;;
75506;SDS011;64086;43.220;27.878;2023-07-30T06:30:48;4.90;;;4.40;;
75506;SDS011;64086;43.220;27.878;2023-07-30T06:33:13;4.43;;;4.10;;
75506;SDS011;64086;43.220;27.878;2023-07-30T06:35:39;4.72;;;4.25;;
75506;SDS011;64086;43.220;27.878;2023-07-30T06:38:05;3.95;;;3.58;;
75506;SDS011;64086;43.220;27.878;2023-07-30T06:40:33;4.65;;;3.95;;
75506;SDS011;64086;43.220;27.878;2023-07-30T06:42:58;3.90;;;3.60;;
75506;SDS011;64086;43.220;27.878;2023-07-30T06:45:23;4.00;;;3.60;;
75506;SDS011;64086;43.220;27.878;2023-07-30T06:47:49;4.28;;;3.92;;
75506;SDS011;64086;43.220;27.878;2023-07-30T06:50:14;4.72;;;4.18;;
75506;SDS011;64086;43.220;27.878;2023-07-30T06:52:40;7.53;;;7.03;;
75506;SDS011;64086;43.220;27.878;2023-07-30T06:55:05;5.82;;;5.20;;
75506;SDS011;64086;43.220;27.878;2023-07-30T06:57:31;5.85;;;4.35;;
75506;SDS011;64086;43.220;27.878;2023-07-30T06:59:56;5.97;;;4.28;;
75506;SDS011;64086;43.220;27.878;2023-07-30T07:02:23;4.93;;;3.90;;
75506;SDS011;64086;43.220;27.878;2023-07-30T07:04:49;4.13;;;3.70;;
75506;SDS011;64086;43.220;27.878;2023-07-30T07:07:15;4.25;;;3.85;;
75506;SDS011;64086;43.220;27.878;2023-07-30T07:09:40;4.03;;;3.65;;
75506;SDS011;64086;43.220;27.878;2023-07-30T07:12:06;3.83;;;3.53;;
75506;SDS011;64086;43.220;27.878;2023-07-30T07:14:32;3.75;;;3.45;;
75506;SDS011;64086;43.220;27.878;2023-07-30T07:16:57;6.00;;;3.95;;
75506;SDS011;64086;43.220;27.878;2023-07-30T07:19:23;4.15;;;3.78;;
75506;SDS011;64086;43.220;27.878;2023-07-30T07:21:48;4.28;;;3.80;;
75506;SDS011;64086;43.220;27.878;2023-07-30T07:24:14;4.10;;;3.70;;
75506;SDS011;64086;43.220;27.878;2023-07-30T07:26:40;3.88;;;3.58;;
75506;SDS011;64086;43.220;27.878;2023-07-30T07:29:05;4.63;;;3.72;;
75506;SDS011;64086;43.220;27.878;2023-07-30T07:31:31;3.60;;;3.20;;
75506;SDS011;64086;43.220;27.878;2023-07-30T07:33:56;3.85;;;3.30;;
75506;SDS011;64086;43.220;27.878;2023-07-30T07:36:22;3.90;;;3.60;;
75506;SDS011;64086;43.220;27.878;2023-07-30T07:38:47;3.95;;;3.60;;
75506;SDS011;64086;43.220;27.878;2023-07-30T07:41:16;3.53;;;3.22;;
75506;SDS011;64086;43.220;27.878;2023-07-30T07:43:42;3.80;;;3.45;;
75506;SDS011;64086;43.220;27.878;2023-07-30T07:46:08;4.07;;;3.42;;
75506;SDS011;64086;43.220;27.878;2023-07-30T07:48:38;4.57;;;3.72;;
75506;SDS011;64086;43.220;27.878;2023-07-30T07:51:05;4.40;;;3.22;;
75506;SDS011;64086;43.220;27.878;2023-07-30T07:53:31;4.90;;;3.72;;
75506;SDS011;64086;43.220;27.878;2023-07-30T07:55:56;3.63;;;3.33;;
75506;SDS011;64086;43.220;27.878;2023-07-30T07:58:21;3.67;;;3.38;;
75506;SDS011;64086;43.220;27.878;2023-07-30T08:00:47;3.97;;;3.50;;
75506;SDS011;64086;43.220;27.878;2023-07-30T08:03:12;3.50;;;3.20;;
75506;SDS011;64086;43.220;27.878;2023-07-30T08:05:38;3.45;;;3.15;;
75506;SDS011;64086;43.220;27.878;2023-07-30T08:08:03;3.80;;;3.50;;
75506;SDS011;64086;43.220;27.878;2023-07-30T08:10:29;4.63;;;3.42;;
75506;SDS011;64086;43.220;27.878;2023-07-30T08:12:54;5.47;;;3.40;;
75506;SDS011;64086;43.220;27.878;2023-07-30T08:15:20;3.45;;;3.15;;
75506;SDS011;64086;43.220;27.878;2023-07-30T08:17:45;5.10;;;3.38;;
75506;SDS011;64086;43.220;27.878;2023-07-30T08:20:11;4.50;;;3.20;;
75506;SDS011;64086;43.220;27.878;2023-07-30T08:22:36;4.38;;;3.50;;
75506;SDS011;64086;43.220;27.878;2023-07-30T08:25:02;4.75;;;3.13;;
75506;SDS011;64086;43.220;27.878;2023-07-30T08:27:28;3.53;;;3.00;;
75506;SDS011;64086;43.220;27.878;2023-07-30T08:29:53;3.20;;;2.90;;
75506;SDS011;64086;43.220;27.878;2023-07-30T08:32:19;5.18;;;2.92;;
75506;SDS011;64086;43.220;27.878;2023-07-30T08:34:44;4.22;;;2.83;;
75506;SDS011;64086;43.220;27.878;2023-07-30T08:37:10;3.10;;;2.78;;
75506;SDS011;64086;43.220;27.878;2023-07-30T08:39:35;3.05;;;2.70;;
75506;SDS011;64086;43.220;27.878;2023-07-30T08:42:01;3.50;;;2.75;;
75506;SDS011;64086;43.220;27.878;2023-07-30T08:44:26;3.55;;;2.70;;
75506;SDS011;64086;43.220;27.878;2023-07-30T08:46:52;3.40;;;3.10;;
75506;SDS011;64086;43.220;27.878;2023-07-30T08:49:17;3.78;;;3.22;;
75506;SDS011;64086;43.220;27.878;2023-07-30T08:51:43;3.28;;;2.97;;
75506;SDS011;64086;43.220;27.878;2023-07-30T08:54:10;3.03;;;2.70;;
75506;SDS011;64086;43.220;27.878;2023-07-30T08:56:37;3.20;;;2.90;;
75506;SDS011;64086;43.220;27.878;2023-07-30T08:59:03;4.55;;;3.05;;
75506;SDS011;64086;43.220;27.878;2023-07-30T09:01:30;4.40;;;3.35;;
75506;SDS011;64086;43.220;27.878;2023-07-30T09:03:58;4.63;;;3.20;;
75506;SDS011;64086;43.220;27.878;2023-07-30T09:06:27;3.92;;;3.10;;
75506;SDS011;64086;43.220;27.878;2023-07-30T09:08:53;3.92;;;3.00;;
75506;SDS011;64086;43.220;27.878;2023-07-30T09:11:18;3.53;;;3.03;;
75506;SDS011;64086;43.220;27.878;2023-07-30T09:13:45;3.33;;;3.00;;
75506;SDS011;64086;43.220;27.878;2023-07-30T09:16:11;3.60;;;2.90;;
75506;SDS011;64086;43.220;27.878;2023-07-30T09:18:41;4.05;;;2.90;;
75506;SDS011;64086;43.220;27.878;2023-07-30T09:21:07;2.95;;;2.72;;
75506;SDS011;64086;43.220;27.878;2023-07-30T09:23:38;3.70;;;3.10;;
75506;SDS011;64086;43.220;27.878;2023-07-30T09:26:05;3.38;;;2.97;;
75506;SDS011;64086;43.220;27.878;2023-07-30T09:28:30;3.15;;;2.70;;
75506;SDS011;64086;43.220;27.878;2023-07-30T09:31:00;3.72;;;3.13;;
75506;SDS011;64086;43.220;27.878;2023-07-30T09:33:30;4.80;;;3.20;;
75506;SDS011;64086;43.220;27.878;2023-07-30T09:35:57;4.60;;;4.20;;
75506;SDS011;64086;43.220;27.878;2023-07-30T09:38:22;4.90;;;4.40;;
75506;SDS011;64086;43.220;27.878;2023-07-30T09:40:48;4.80;;;4.40;;
75506;SDS011;64086;43.220;27.878;2023-07-30T09:43:14;5.80;;;5.30;;
75506;SDS011;64086;43.220;27.878;2023-07-30T09:45:40;3.35;;;3.05;;
75506;SDS011;64086;43.220;27.878;2023-07-30T09:48:10;5.72;;;3.15;;
75506;SDS011;64086;43.220;27.878;2023-07-30T09:50:36;3.15;;;2.85;;
75506;SDS011;64086;43.220;27.878;2023-07-30T09:53:02;3.33;;;2.80;;
75506;SDS011;64086;43.220;27.878;2023-07-30T09:55:28;3.00;;;2.70;;
75506;SDS011;64086;43.220;27.878;2023-07-30T09:57:54;4.68;;;2.80;;
75506;SDS011;64086;43.220;27.878;2023-07-30T10:00:19;3.22;;;2.35;;
75506;SDS011;64086;43.220;27.878;2023-07-30T10:02:45;4.80;;;2.60;;
75506;SDS011;64086;43.220;27.878;2023-07-30T10:05:15;3.50;;;2.78;;
75506;SDS011;64086;43.220;27.878;2023-07-30T10:07:44;2.80;;;2.30;;
75506;SDS011;64086;43.220;27.878;2023-07-30T10:10:15;2.80;;;2.30;;
75506;SDS011;64086;43.220;27.878;2023-07-30T10:12:40;3.78;;;2.70;;
75506;SDS011;64086;43.220;27.878;2023-07-30T10:15:07;3.42;;;2.53;;
75506;SDS011;64086;43.220;27.878;2023-07-30T10:17:33;4.22;;;2.50;;
75506;SDS011;64086;43.220;27.878;2023-07-30T10:20:17;2.90;;;2.58;;
75506;SDS011;64086;43.220;27.878;2023-07-30T10:22:54;3.80;;;2.78;;
75506;SDS011;64086;43.220;27.878;2023-07-30T10:30:58;3.78;;;2.63;;
75506;SDS011;64086;43.220;27.878;2023-07-30T10:33:43;4.15;;;2.65;;
75506;SDS011;64086;43.220;27.878;2023-07-30T10:36:09;3.80;;;2.75;;
75506;SDS011;64086;43.220;27.878;2023-07-30T10:38:35;4.20;;;2.85;;
75506;SDS011;64086;43.220;27.878;2023-07-30T10:41:10;3.47;;;2.10;;
75506;SDS011;64086;43.220;27.878;2023-07-30T10:43:42;2.90;;;2.55;;
75506;SDS011;64086;43.220;27.878;2023-07-30T10:46:09;2.97;;;2.67;;
75506;SDS011;64086;43.220;27.878;2023-07-30T10:48:37;3.88;;;2.72;;
75506;SDS011;64086;43.220;27.878;2023-07-30T10:51:11;3.53;;;2.72;;
75506;SDS011;64086;43.220;27.878;2023-07-30T10:53:38;3.60;;;2.60;;
75506;SDS011;64086;43.220;27.878;2023-07-30T10:56:05;3.75;;;2.60;;
75506;SDS011;64086;43.220;27.878;2023-07-30T10:58:32;2.90;;;2.60;;
75506;SDS011;64086;43.220;27.878;2023-07-30T11:01:01;3.17;;;2.30;;
75506;SDS011;64086;43.220;27.878;2023-07-30T11:03:27;3.03;;;2.72;;
75506;SDS011;64086;43.220;27.878;2023-07-30T11:05:53;3.15;;;2.60;;
75506;SDS011;64086;43.220;27.878;2023-07-30T11:08:30;4.03;;;2.60;;
75506;SDS011;64086;43.220;27.878;2023-07-30T11:11:07;3.05;;;2.63;;
75506;SDS011;64086;43.220;27.878;2023-07-30T11:13:43;2.78;;;2.47;;
75506;SDS011;64086;43.220;27.878;2023-07-30T11:16:13;3.28;;;2.97;;
75506;SDS011;64086;43.220;27.878;2023-07-30T11:18:39;3.35;;;2.83;;
75506;SDS011;64086;43.220;27.878;2023-07-30T11:21:09;2.80;;;2.50;;
75506;SDS011;64086;43.220;27.878;2023-07-30T11:23:36;2.50;;;2.30;;
75506;SDS011;64086;43.220;27.878;2023-07-30T11:26:04;2.83;;;2.10;;
75506;SDS011;64086;43.220;27.878;2023-07-30T11:28:34;3.20;;;2.45;;
75506;SDS011;64086;43.220;27.878;2023-07-30T11:33:43;3.22;;;2.30;;
75506;SDS011;64086;43.220;27.878;2023-07-30T11:36:14;2.83;;;2.35;;
75506;SDS011;64086;43.220;27.878;2023-07-30T11:38:41;3.67;;;2.40;;
75506;SDS011;64086;43.220;27.878;2023-07-30T11:41:07;3.00;;;2.13;;
75506;SDS011;64086;43.220;27.878;2023-07-30T11:43:35;3.75;;;2.00;;
75506;SDS011;64086;43.220;27.878;2023-07-30T11:46:14;4.05;;;2.20;;
75506;SDS011;64086;43.220;27.878;2023-07-30T11:48:44;2.60;;;2.35;;
75506;SDS011;64086;43.220;27.878;2023-07-30T11:56:20;2.60;;;2.40;;
75506;SDS011;64086;43.220;27.878;2023-07-30T11:58:47;3.28;;;2.33;;
75506;SDS011;64086;43.220;27.878;2023-07-30T12:01:13;3.38;;;2.53;;
75506;SDS011;64086;43.220;27.878;2023-07-30T12:03:40;2.80;;;2.38;;
75506;SDS011;64086;43.220;27.878;2023-07-30T12:06:06;4.47;;;2.60;;
75506;SDS011;64086;43.220;27.878;2023-07-30T12:08:33;3.20;;;2.38;;
75506;SDS011;64086;43.220;27.878;2023-07-30T12:11:03;3.97;;;2.22;;
75506;SDS011;64086;43.220;27.878;2023-07-30T12:13:31;4.30;;;2.65;;
75506;SDS011;64086;43.220;27.878;2023-07-30T12:15:56;3.22;;;2.80;;
75506;SDS011;64086;43.220;27.878;2023-07-30T12:18:23;4.65;;;2.80;;
75506;SDS011;64086;43.220;27.878;2023-07-30T12:20:49;2.72;;;2.50;;
75506;SDS011;64086;43.220;27.878;2023-07-30T12:23:18;2.70;;;2.50;;
75506;SDS011;64086;43.220;27.878;2023-07-30T12:25:46;5.03;;;2.63;;
75506;SDS011;64086;43.220;27.878;2023-07-30T12:28:12;3.10;;;2.30;;
75506;SDS011;64086;43.220;27.878;2023-07-30T12:30:38;3.42;;;2.70;;
75506;SDS011;64086;43.220;27.878;2023-07-30T12:33:04;4.00;;;2.97;;
75506;SDS011;64086;43.220;27.878;2023-07-30T12:35:30;3.25;;;2.55;;
75506;SDS011;64086;43.220;27.878;2023-07-30T12:37:55;3.67;;;2.40;;
75506;SDS011;64086;43.220;27.878;2023-07-30T12:40:21;3.25;;;2.50;;
75506;SDS011;64086;43.220;27.878;2023-07-30T12:42:46;3.05;;;2.10;;
75506;SDS011;64086;43.220;27.878;2023-07-30T12:45:12;2.90;;;2.28;;
75506;SDS011;64086;43.220;27.878;2023-07-30T12:47:37;3.05;;;2.30;;
75506;SDS011;64086;43.220;27.878;2023-07-30T12:50:03;3.38;;;2.28;;
75506;SDS011;64086;43.220;27.878;2023-07-30T12:52:30;3.05;;;2.60;;
75506;SDS011;64086;43.220;27.878;2023-07-30T12:54:57;3.28;;;2.42;;
75506;SDS011;64086;43.220;27.878;2023-07-30T12:57:22;3.08;;;2.38;;
75506;SDS011;64086;43.220;27.878;2023-07-30T12:59:48;3.45;;;2.40;;
75506;SDS011;64086;43.220;27.878;2023-07-30T13:02:13;2.78;;;2.28;;
75506;SDS011;64086;43.220;27.878;2023-07-30T13:04:38;2.90;;;2.30;;
75506;SDS011;64086;43.220;27.878;2023-07-30T13:07:04;3.65;;;2.35;;
75506;SDS011;64086;43.220;27.878;2023-07-30T13:09:30;3.15;;;2.35;;
75506;SDS011;64086;43.220;27.878;2023-07-30T13:11:55;4.53;;;2.42;;
75506;SDS011;64086;43.220;27.878;2023-07-30T13:14:21;3.42;;;2.28;;
75506;SDS011;64086;43.220;27.878;2023-07-30T13:16:46;5.00;;;2.45;;
75506;SDS011;64086;43.220;27.878;2023-07-30T13:19:12;4.57;;;2.30;;
75506;SDS011;64086;43.220;27.878;2023-07-30T13:21:37;4.28;;;2.13;;
75506;SDS011;64086;43.220;27.878;2023-07-30T13:24:03;2.67;;;2.17;;
75506;SDS011;64086;43.220;27.878;2023-07-30T13:26:28;2.80;;;2.50;;
75506;SDS011;64086;43.220;27.878;2023-07-30T13:28:54;2.67;;;2.20;;
75506;SDS011;64086;43.220;27.878;2023-07-30T13:31:19;2.75;;;2.40;;
75506;SDS011;64086;43.220;27.878;2023-07-30T13:33:45;3.97;;;2.90;;
75506;SDS011;64086;43.220;27.878;2023-07-30T13:36:12;4.35;;;2.40;;
75506;SDS011;64086;43.220;27.878;2023-07-30T13:38:38;3.20;;;2.20;;
75506;SDS011;64086;43.220;27.878;2023-07-30T13:41:04;2.92;;;2.58;;
75506;SDS011;64086;43.220;27.878;2023-07-30T13:43:30;2.95;;;2.20;;
75506;SDS011;64086;43.220;27.878;2023-07-30T13:45:56;3.55;;;2.30;;
75506;SDS011;64086;43.220;27.878;2023-07-30T13:48:22;2.80;;;2.08;;
75506;SDS011;64086;43.220;27.878;2023-07-30T13:50:49;3.80;;;2.40;;
75506;SDS011;64086;43.220;27.878;2023-07-30T13:53:14;5.15;;;2.78;;
75506;SDS011;64086;43.220;27.878;2023-07-30T13:55:39;3.63;;;2.28;;
75506;SDS011;64086;43.220;27.878;2023-07-30T13:58:05;3.67;;;2.30;;
75506;SDS011;64086;43.220;27.878;2023-07-30T14:00:30;2.95;;;2.17;;
75506;SDS011;64086;43.220;27.878;2023-07-30T14:02:56;3.60;;;2.15;;
75506;SDS011;64086;43.220;27.878;2023-07-30T14:05:21;2.53;;;2.08;;
75506;SDS011;64086;43.220;27.878;2023-07-30T14:07:47;3.03;;;2.30;;
75506;SDS011;64086;43.220;27.878;2023-07-30T14:10:12;3.55;;;2.20;;
75506;SDS011;64086;43.220;27.878;2023-07-30T14:12:38;3.05;;;2.08;;
75506;SDS011;64086;43.220;27.878;2023-07-30T14:15:03;2.78;;;2.30;;
75506;SDS011;64086;43.220;27.878;2023-07-30T14:17:29;3.38;;;2.22;;
75506;SDS011;64086;43.220;27.878;2023-07-30T14:19:55;5.45;;;2.20;;
75506;SDS011;64086;43.220;27.878;2023-07-30T14:22:21;3.05;;;2.00;;
75506;SDS011;64086;43.220;27.878;2023-07-30T14:24:46;3.72;;;2.00;;
75506;SDS011;64086;43.220;27.878;2023-07-30T14:27:12;2.55;;;2.00;;
75506;SDS011;64086;43.220;27.878;2023-07-30T14:29:37;4.05;;;2.35;;
75506;SDS011;64086;43.220;27.878;2023-07-30T14:32:03;3.70;;;2.55;;
75506;SDS011;64086;43.220;27.878;2023-07-30T14:34:29;3.47;;;2.40;;
75506;SDS011;64086;43.220;27.878;2023-07-30T14:36:54;3.05;;;2.20;;
75506;SDS011;64086;43.220;27.878;2023-07-30T14:39:20;2.92;;;2.20;;
75506;SDS011;64086;43.220;27.878;2023-07-30T14:41:45;3.35;;;2.10;;